Queen Isabella — A8IE2 — position and weather

sailwx.info

Track history (hours):
 
Tides and Currents Weather Stations Pressure Air Temp Water Temp Dewpoint Dewpoint Depression Visibility Wind Speed Wind Dir Waves Ship Positions

Queen Isabella

Last reported at 2017-May-23 06:56 UTC. Time now 2017-May-23 12:24 UTC.
Position N 36°06' W 005°22'.

Length 131 m; draft 6 m.

Type: Tanker. MMSI: 636090959.

Date/timePositionNaut miles runAvg speedWind from/ knotsBaromVisibWave heightAir tempDewpointWater temp
2017-May-23 06:56N 36°06' W 005°22'3 6.1
2017-May-23 06:30N 36°04' W 005°19'510.8
2017-May-23 06:00N 36°04' W 005°12'2 4.6
2017-May-23 05:30N 36°01' W 005°12'713.9
2017-May-23 05:00N 35°59' W 005°20'714.7
2017-May-23 04:30N 35°57' W 005°29'914.0
2017-May-23 03:53N 35°56' W 005°39'513.8
2017-May-23 03:30N 35°55' W 005°46'713.3
2017-May-23 03:00N 35°55' W 005°54'1712.5
2017-May-23 01:38N 35°55' W 006°15'311.9
2017-May-23 01:23N 35°55' W 006°18'6211.7
2017-May-22 20:04N 36°10' W 007°33'10011.6
2017-May-22 11:25N 36°39' W 009°32'9612.3
2017-May-22 03:36N 38°12' W 010°03'412.4
2017-May-22 03:16N 38°16' W 010°04'412.5
2017-May-22 02:56N 38°20' W 010°05'512.4
2017-May-22 02:30N 38°25' W 010°07'612.4
2017-May-22 02:00N 38°31' W 010°09'612.3
2017-May-22 01:29N 38°38' W 010°11'912.0
2017-May-22 00:44N 38°46' W 010°12'312.2
2017-May-22 00:30N 38°49' W 010°12'612.5
2017-May-22 00:00N 38°56' W 010°11'612.7
2017-May-21 23:30N 39°02' W 010°11'612.4
2017-May-21 23:00N 39°08' W 010°11'612.2
2017-May-21 22:30N 39°14' W 010°11'612.4
2017-May-21 22:00N 39°21' W 010°11'612.4
2017-May-21 21:30N 39°27' W 010°12'612.5
2017-May-21 21:00N 39°33' W 010°11'612.5
2017-May-21 20:30N 39°39' W 010°12'301 9.2
2017-May-20 11:33N 43°39' W 006°07'111.9
2017-May-20 11:27N 43°38' W 006°05'6 0.2
2017-May-19 07:34N 43°36' W 005°57'2 6.1
2017-May-19 07:18N 43°37' W 005°59'3 7.1
2017-May-19 06:55N 43°38' W 006°02'3 7.4
2017-May-19 06:30N 43°39' W 006°06'712.6
2017-May-19 05:56N 43°41' W 006°15'306 9.5
2017-May-17 21:49N 39°25' W 009°56'412.1
2017-May-17 21:29N 39°21' W 009°57'612.0
2017-May-17 21:00N 39°15' W 009°56'612.1
2017-May-17 20:30N 39°09' W 009°57'612.1
2017-May-17 20:00N 39°03' W 009°57'612.3
2017-May-17 19:31N 38°57' W 009°57'612.2
2017-May-17 19:00N 38°50' W 009°56'612.5
2017-May-17 18:30N 38°44' W 009°56'612.3
2017-May-17 18:00N 38°38' W 009°55'612.4
2017-May-17 17:30N 38°32' W 009°53'612.2
2017-May-17 17:00N 38°26' W 009°51'612.6
2017-May-17 16:30N 38°20' W 009°50'612.4
2017-May-17 16:00N 38°14' W 009°48'612.3
2017-May-17 15:30N 38°08' W 009°46'812.5
2017-May-17 14:50N 37°60' W 009°44'1012.6
2017-May-17 14:00N 37°49' W 009°41'712.3
2017-May-17 13:25N 37°43' W 009°39'512.3
2017-May-17 12:59N 37°37' W 009°38'612.3
2017-May-17 12:30N 37°32' W 009°36'712.3
2017-May-17 11:54N 37°24' W 009°34'712.4
2017-May-17 11:19N 37°17' W 009°32'412.8
2017-May-17 11:00N 37°13' W 009°31'612.8
2017-May-17 10:30N 37°07' W 009°29'612.8
2017-May-17 10:00N 37°01' W 009°27'713.1
2017-May-17 09:30N 36°55' W 009°25'612.3
2017-May-17 09:00N 36°49' W 009°22'712.7
2017-May-17 08:28N 36°44' W 009°16'712.5
2017-May-17 07:55N 36°40' W 009°09'812.6
2017-May-17 07:19N 36°37' W 009°00'2112.9
2017-May-17 05:43N 36°31' W 008°36'3113.0
2017-May-17 03:20N 36°20' W 008°00'413.1
2017-May-17 03:00N 36°19' W 007°55'713.3
2017-May-17 02:30N 36°17' W 007°47'713.3
2017-May-17 02:00N 36°15' W 007°39'37512.9
2017-May-15 21:03N 36°50' E 000°05'113.7
2017-May-15 21:00N 36°50' E 000°06'1513.8
2017-May-15 19:56N 36°53' E 000°24'614.0
2017-May-15 19:30N 36°54' E 000°31'714.1
2017-May-15 19:00N 36°56' E 000°40'813.7
2017-May-15 18:24N 36°58' E 000°50'513.5
2017-May-15 18:00N 36°59' E 000°56'813.3
2017-May-15 17:24N 37°01' E 001°06'513.2
2017-May-15 17:00N 37°02' E 001°12'713.1
2017-May-15 16:30N 37°03' E 001°20'713.1
2017-May-15 16:00N 37°05' E 001°28'613.0
2017-May-15 15:31N 37°06' E 001°36'713.1
2017-May-15 15:00N 37°07' E 001°45'1212.1
2017-May-15 14:01N 37°09' E 001°59'713.6
2017-May-15 13:31N 37°11' E 002°08'713.7
2017-May-15 13:00N 37°12' E 002°16'713.8
2017-May-15 12:28N 37°14' E 002°25'10213.3
2017-May-15 04:47N 37°19' E 004°34'513.4
2017-May-15 04:26N 37°19' E 004°40'613.4
2017-May-15 03:58N 37°18' E 004°47'1013.4
2017-May-15 03:14N 37°18' E 004°60'  
Track history (hours):
 
Tides and Currents Weather Stations Pressure Air Temp Water Temp Dewpoint Dewpoint Depression Visibility Wind Speed Wind Dir Waves Ship Positions

Queen Isabella

Last reported at 2017-May-23 06:56 UTC. Time now 2017-May-23 12:24 UTC.
Position N 36°06' W 005°22'.

Length 131 m; draft 6 m.

Type: Tanker. MMSI: 636090959.

Date/timePositionNaut miles runAvg speedWind from/ knotsBaromVisibWave heightAir tempDewpointWater temp
2017-May-23 06:56N 36°06' W 005°22'3 6.1
2017-May-23 06:30N 36°04' W 005°19'510.8
2017-May-23 06:00N 36°04' W 005°12'2 4.6
2017-May-23 05:30N 36°01' W 005°12'713.9
2017-May-23 05:00N 35°59' W 005°20'714.7
2017-May-23 04:30N 35°57' W 005°29'914.0
2017-May-23 03:53N 35°56' W 005°39'513.8
2017-May-23 03:30N 35°55' W 005°46'713.3
2017-May-23 03:00N 35°55' W 005°54'1712.5
2017-May-23 01:38N 35°55' W 006°15'311.9
2017-May-23 01:23N 35°55' W 006°18'6211.7
2017-May-22 20:04N 36°10' W 007°33'10011.6
2017-May-22 11:25N 36°39' W 009°32'9612.3
2017-May-22 03:36N 38°12' W 010°03'412.4
2017-May-22 03:16N 38°16' W 010°04'412.5
2017-May-22 02:56N 38°20' W 010°05'512.4
2017-May-22 02:30N 38°25' W 010°07'612.4
2017-May-22 02:00N 38°31' W 010°09'612.3
2017-May-22 01:29N 38°38' W 010°11'912.0
2017-May-22 00:44N 38°46' W 010°12'312.2
2017-May-22 00:30N 38°49' W 010°12'612.5
2017-May-22 00:00N 38°56' W 010°11'612.7
2017-May-21 23:30N 39°02' W 010°11'612.4
2017-May-21 23:00N 39°08' W 010°11'612.2
2017-May-21 22:30N 39°14' W 010°11'612.4
2017-May-21 22:00N 39°21' W 010°11'612.4
2017-May-21 21:30N 39°27' W 010°12'612.5
2017-May-21 21:00N 39°33' W 010°11'612.5
2017-May-21 20:30N 39°39' W 010°12'301 9.2
2017-May-20 11:33N 43°39' W 006°07'111.9
2017-May-20 11:27N 43°38' W 006°05'6 0.2
2017-May-19 07:34N 43°36' W 005°57'2 6.1
2017-May-19 07:18N 43°37' W 005°59'3 7.1
2017-May-19 06:55N 43°38' W 006°02'3 7.4
2017-May-19 06:30N 43°39' W 006°06'712.6
2017-May-19 05:56N 43°41' W 006°15'306 9.5
2017-May-17 21:49N 39°25' W 009°56'412.1
2017-May-17 21:29N 39°21' W 009°57'612.0
2017-May-17 21:00N 39°15' W 009°56'612.1
2017-May-17 20:30N 39°09' W 009°57'612.1
2017-May-17 20:00N 39°03' W 009°57'612.3
2017-May-17 19:31N 38°57' W 009°57'612.2
2017-May-17 19:00N 38°50' W 009°56'612.5
2017-May-17 18:30N 38°44' W 009°56'612.3
2017-May-17 18:00N 38°38' W 009°55'612.4
2017-May-17 17:30N 38°32' W 009°53'612.2
2017-May-17 17:00N 38°26' W 009°51'612.6
2017-May-17 16:30N 38°20' W 009°50'612.4
2017-May-17 16:00N 38°14' W 009°48'612.3
2017-May-17 15:30N 38°08' W 009°46'812.5
2017-May-17 14:50N 37°60' W 009°44'1012.6
2017-May-17 14:00N 37°49' W 009°41'712.3
2017-May-17 13:25N 37°43' W 009°39'512.3
2017-May-17 12:59N 37°37' W 009°38'612.3
2017-May-17 12:30N 37°32' W 009°36'712.3
2017-May-17 11:54N 37°24' W 009°34'712.4
2017-May-17 11:19N 37°17' W 009°32'412.8
2017-May-17 11:00N 37°13' W 009°31'612.8
2017-May-17 10:30N 37°07' W 009°29'612.8
2017-May-17 10:00N 37°01' W 009°27'713.1
2017-May-17 09:30N 36°55' W 009°25'612.3
2017-May-17 09:00N 36°49' W 009°22'712.7
2017-May-17 08:28N 36°44' W 009°16'712.5
2017-May-17 07:55N 36°40' W 009°09'812.6
2017-May-17 07:19N 36°37' W 009°00'2112.9
2017-May-17 05:43N 36°31' W 008°36'3113.0
2017-May-17 03:20N 36°20' W 008°00'413.1
2017-May-17 03:00N 36°19' W 007°55'713.3
2017-May-17 02:30N 36°17' W 007°47'713.3
2017-May-17 02:00N 36°15' W 007°39'37512.9
2017-May-15 21:03N 36°50' E 000°05'113.7
2017-May-15 21:00N 36°50' E 000°06'1513.8
2017-May-15 19:56N 36°53' E 000°24'614.0
2017-May-15 19:30N 36°54' E 000°31'714.1
2017-May-15 19:00N 36°56' E 000°40'813.7
2017-May-15 18:24N 36°58' E 000°50'513.5
2017-May-15 18:00N 36°59' E 000°56'813.3
2017-May-15 17:24N 37°01' E 001°06'513.2
2017-May-15 17:00N 37°02' E 001°12'713.1
2017-May-15 16:30N 37°03' E 001°20'713.1
2017-May-15 16:00N 37°05' E 001°28'613.0
2017-May-15 15:31N 37°06' E 001°36'713.1
2017-May-15 15:00N 37°07' E 001°45'1212.1
2017-May-15 14:01N 37°09' E 001°59'713.6
2017-May-15 13:31N 37°11' E 002°08'713.7
2017-May-15 13:00N 37°12' E 002°16'713.8
2017-May-15 12:28N 37°14' E 002°25'10213.3
2017-May-15 04:47N 37°19' E 004°34'513.4
2017-May-15 04:26N 37°19' E 004°40'613.4
2017-May-15 03:58N 37°18' E 004°47'1013.4
2017-May-15 03:14N 37°18' E 004°60'  

Dump ship's entire track history